sensor_id;sensor_type;location;lat;lon;timestamp;temperature;humidity
31113;DHT22;17763;48.730;9.136;2024-01-30T00:02:20;6.60;95.90
31113;DHT22;17763;48.730;9.136;2024-01-30T00:04:46;6.60;96.10
31113;DHT22;17763;48.730;9.136;2024-01-30T00:07:11;6.50;96.20
31113;DHT22;17763;48.730;9.136;2024-01-30T00:09:41;6.50;96.30
31113;DHT22;17763;48.730;9.136;2024-01-30T00:12:07;6.50;96.30
31113;DHT22;17763;48.730;9.136;2024-01-30T00:14:33;6.40;96.30
31113;DHT22;17763;48.730;9.136;2024-01-30T00:17:00;6.40;96.40
31113;DHT22;17763;48.730;9.136;2024-01-30T00:19:26;6.40;96.60
31113;DHT22;17763;48.730;9.136;2024-01-30T00:21:52;6.30;96.70
31113;DHT22;17763;48.730;9.136;2024-01-30T00:24:20;6.30;96.80
31113;DHT22;17763;48.730;9.136;2024-01-30T00:26:48;6.30;97.00
31113;DHT22;17763;48.730;9.136;2024-01-30T00:29:13;6.20;97.20
31113;DHT22;17763;48.730;9.136;2024-01-30T00:31:49;6.20;97.50
31113;DHT22;17763;48.730;9.136;2024-01-30T00:34:17;6.20;97.60
31113;DHT22;17763;48.730;9.136;2024-01-30T00:36:43;6.20;97.90
31113;DHT22;17763;48.730;9.136;2024-01-30T00:39:08;6.20;98.00
31113;DHT22;17763;48.730;9.136;2024-01-30T00:41:35;6.20;98.30
31113;DHT22;17763;48.730;9.136;2024-01-30T00:44:00;6.10;98.40
31113;DHT22;17763;48.730;9.136;2024-01-30T00:46:26;6.10;98.60
31113;DHT22;17763;48.730;9.136;2024-01-30T00:48:54;6.10;98.80
31113;DHT22;17763;48.730;9.136;2024-01-30T00:51:20;6.10;99.00
31113;DHT22;17763;48.730;9.136;2024-01-30T00:53:48;6.10;99.10
31113;DHT22;17763;48.730;9.136;2024-01-30T00:56:13;6.10;99.30
31113;DHT22;17763;48.730;9.136;2024-01-30T00:58:39;6.10;99.40
31113;DHT22;17763;48.730;9.136;2024-01-30T01:01:07;6.10;99.50
31113;DHT22;17763;48.730;9.136;2024-01-30T01:03:33;6.10;99.60
31113;DHT22;17763;48.730;9.136;2024-01-30T01:05:58;6.10;99.70
31113;DHT22;17763;48.730;9.136;2024-01-30T01:08:24;6.00;99.80
31113;DHT22;17763;48.730;9.136;2024-01-30T01:10:50;6.00;99.90
31113;DHT22;17763;48.730;9.136;2024-01-30T01:13:19;6.00;99.90
31113;DHT22;17763;48.730;9.136;2024-01-30T01:15:45;5.90;99.90
31113;DHT22;17763;48.730;9.136;2024-01-30T01:18:12;5.90;99.90
31113;DHT22;17763;48.730;9.136;2024-01-30T01:20:38;6.00;99.90
31113;DHT22;17763;48.730;9.136;2024-01-30T01:23:06;6.00;99.90
31113;DHT22;17763;48.730;9.136;2024-01-30T01:25:34;6.00;99.90
31113;DHT22;17763;48.730;9.136;2024-01-30T01:28:00;6.00;99.90
31113;DHT22;17763;48.730;9.136;2024-01-30T01:30:27;6.00;99.90
31113;DHT22;17763;48.730;9.136;2024-01-30T01:32:54;6.00;99.90
31113;DHT22;17763;48.730;9.136;2024-01-30T01:35:29;6.10;99.90
31113;DHT22;17763;48.730;9.136;2024-01-30T01:37:54;6.10;99.90
31113;DHT22;17763;48.730;9.136;2024-01-30T01:40:25;6.10;99.90
31113;DHT22;17763;48.730;9.136;2024-01-30T01:42:55;6.10;99.90
31113;DHT22;17763;48.730;9.136;2024-01-30T01:45:23;6.10;99.90
31113;DHT22;17763;48.730;9.136;2024-01-30T01:47:52;6.10;99.90
31113;DHT22;17763;48.730;9.136;2024-01-30T01:50:21;6.10;99.90
31113;DHT22;17763;48.730;9.136;2024-01-30T01:52:50;6.10;99.90
31113;DHT22;17763;48.730;9.136;2024-01-30T01:55:17;6.10;99.90
31113;DHT22;17763;48.730;9.136;2024-01-30T01:57:46;6.10;99.90
31113;DHT22;17763;48.730;9.136;2024-01-30T02:00:12;6.10;99.90
31113;DHT22;17763;48.730;9.136;2024-01-30T02:02:39;6.10;99.90
31113;DHT22;17763;48.730;9.136;2024-01-30T02:05:05;6.10;99.90
31113;DHT22;17763;48.730;9.136;2024-01-30T02:07:31;6.10;99.90
31113;DHT22;17763;48.730;9.136;2024-01-30T02:09:59;6.00;99.90
31113;DHT22;17763;48.730;9.136;2024-01-30T02:12:27;6.10;99.90
31113;DHT22;17763;48.730;9.136;2024-01-30T02:14:52;6.10;99.90
31113;DHT22;17763;48.730;9.136;2024-01-30T02:17:23;6.10;99.90
31113;DHT22;17763;48.730;9.136;2024-01-30T02:19:49;6.00;99.90
31113;DHT22;17763;48.730;9.136;2024-01-30T02:22:15;6.00;99.90
31113;DHT22;17763;48.730;9.136;2024-01-30T02:24:43;5.90;99.90
31113;DHT22;17763;48.730;9.136;2024-01-30T02:27:08;5.90;99.90
31113;DHT22;17763;48.730;9.136;2024-01-30T02:29:34;5.90;99.90
31113;DHT22;17763;48.730;9.136;2024-01-30T02:32:00;5.80;99.90
31113;DHT22;17763;48.730;9.136;2024-01-30T02:34:27;5.80;99.90
31113;DHT22;17763;48.730;9.136;2024-01-30T02:36:53;5.70;99.90
31113;DHT22;17763;48.730;9.136;2024-01-30T02:39:22;5.70;99.90
31113;DHT22;17763;48.730;9.136;2024-01-30T02:41:50;5.70;99.90
31113;DHT22;17763;48.730;9.136;2024-01-30T02:44:16;5.70;99.90
31113;DHT22;17763;48.730;9.136;2024-01-30T02:46:41;5.60;99.90
31113;DHT22;17763;48.730;9.136;2024-01-30T02:49:07;5.60;99.90
31113;DHT22;17763;48.730;9.136;2024-01-30T02:51:33;5.60;99.90
31113;DHT22;17763;48.730;9.136;2024-01-30T02:53:59;5.50;99.90
31113;DHT22;17763;48.730;9.136;2024-01-30T02:56:27;5.50;99.90
31113;DHT22;17763;48.730;9.136;2024-01-30T02:58:57;5.50;99.90
31113;DHT22;17763;48.730;9.136;2024-01-30T03:01:23;5.40;99.90
31113;DHT22;17763;48.730;9.136;2024-01-30T03:03:50;5.40;99.90
31113;DHT22;17763;48.730;9.136;2024-01-30T03:06:15;5.40;99.90
31113;DHT22;17763;48.730;9.136;2024-01-30T03:08:45;5.30;99.90
31113;DHT22;17763;48.730;9.136;2024-01-30T03:11:11;5.30;99.90
31113;DHT22;17763;48.730;9.136;2024-01-30T03:13:37;5.20;99.90
31113;DHT22;17763;48.730;9.136;2024-01-30T03:16:03;5.10;99.90
31113;DHT22;17763;48.730;9.136;2024-01-30T03:18:28;5.10;99.90
31113;DHT22;17763;48.730;9.136;2024-01-30T03:20:56;5.00;99.90
31113;DHT22;17763;48.730;9.136;2024-01-30T03:23:22;5.00;99.90
31113;DHT22;17763;48.730;9.136;2024-01-30T03:25:50;5.10;99.90
31113;DHT22;17763;48.730;9.136;2024-01-30T03:28:15;4.90;99.90
31113;DHT22;17763;48.730;9.136;2024-01-30T03:30:41;4.90;99.90
31113;DHT22;17763;48.730;9.136;2024-01-30T03:33:07;4.80;99.90
31113;DHT22;17763;48.730;9.136;2024-01-30T03:35:32;4.80;99.90
31113;DHT22;17763;48.730;9.136;2024-01-30T03:37:58;4.70;99.90
31113;DHT22;17763;48.730;9.136;2024-01-30T03:40:24;4.70;99.90
31113;DHT22;17763;48.730;9.136;2024-01-30T03:42:49;4.70;99.90
31113;DHT22;17763;48.730;9.136;2024-01-30T03:45:15;4.70;99.90
31113;DHT22;17763;48.730;9.136;2024-01-30T03:47:43;4.60;99.90
31113;DHT22;17763;48.730;9.136;2024-01-30T03:50:12;4.60;99.90
31113;DHT22;17763;48.730;9.136;2024-01-30T03:52:40;4.60;99.90
31113;DHT22;17763;48.730;9.136;2024-01-30T03:55:05;4.50;99.90
31113;DHT22;17763;48.730;9.136;2024-01-30T03:57:34;4.50;99.90
31113;DHT22;17763;48.730;9.136;2024-01-30T04:00:00;4.50;99.90
31113;DHT22;17763;48.730;9.136;2024-01-30T04:02:25;4.40;99.90
31113;DHT22;17763;48.730;9.136;2024-01-30T04:04:53;4.30;99.90
31113;DHT22;17763;48.730;9.136;2024-01-30T04:07:19;4.30;99.90
31113;DHT22;17763;48.730;9.136;2024-01-30T04:09:45;4.30;99.90
31113;DHT22;17763;48.730;9.136;2024-01-30T04:12:10;4.30;99.90
31113;DHT22;17763;48.730;9.136;2024-01-30T04:14:40;4.30;99.90
31113;DHT22;17763;48.730;9.136;2024-01-30T04:17:06;4.30;99.90
31113;DHT22;17763;48.730;9.136;2024-01-30T04:19:36;4.30;99.90
31113;DHT22;17763;48.730;9.136;2024-01-30T04:22:04;4.30;99.90
31113;DHT22;17763;48.730;9.136;2024-01-30T04:24:30;4.20;99.90
31113;DHT22;17763;48.730;9.136;2024-01-30T04:26:56;4.20;99.90
31113;DHT22;17763;48.730;9.136;2024-01-30T04:29:21;4.10;99.90
31113;DHT22;17763;48.730;9.136;2024-01-30T04:31:48;4.10;99.90
31113;DHT22;17763;48.730;9.136;2024-01-30T04:34:15;4.00;99.90
31113;DHT22;17763;48.730;9.136;2024-01-30T04:36:44;3.90;99.90
31113;DHT22;17763;48.730;9.136;2024-01-30T04:39:10;3.90;99.90
31113;DHT22;17763;48.730;9.136;2024-01-30T04:41:36;3.90;99.90
31113;DHT22;17763;48.730;9.136;2024-01-30T04:44:02;3.90;99.90
31113;DHT22;17763;48.730;9.136;2024-01-30T04:46:28;3.80;99.90
31113;DHT22;17763;48.730;9.136;2024-01-30T04:48:53;3.80;99.90
31113;DHT22;17763;48.730;9.136;2024-01-30T04:51:21;3.80;99.90
31113;DHT22;17763;48.730;9.136;2024-01-30T04:53:47;3.90;99.90
31113;DHT22;17763;48.730;9.136;2024-01-30T04:56:13;3.80;99.90
31113;DHT22;17763;48.730;9.136;2024-01-30T04:58:38;3.80;99.90
31113;DHT22;17763;48.730;9.136;2024-01-30T05:01:06;3.70;99.90
31113;DHT22;17763;48.730;9.136;2024-01-30T05:03:35;3.80;99.90
31113;DHT22;17763;48.730;9.136;2024-01-30T05:06:01;3.70;99.90
31113;DHT22;17763;48.730;9.136;2024-01-30T05:08:29;3.70;99.90
31113;DHT22;17763;48.730;9.136;2024-01-30T05:10:55;3.70;99.90
31113;DHT22;17763;48.730;9.136;2024-01-30T05:13:23;3.60;99.90
31113;DHT22;17763;48.730;9.136;2024-01-30T05:15:49;3.70;99.90
31113;DHT22;17763;48.730;9.136;2024-01-30T05:18:17;3.70;99.90
31113;DHT22;17763;48.730;9.136;2024-01-30T05:20:47;3.60;99.90
31113;DHT22;17763;48.730;9.136;2024-01-30T05:23:13;3.60;99.90
31113;DHT22;17763;48.730;9.136;2024-01-30T05:25:44;3.70;99.90
31113;DHT22;17763;48.730;9.136;2024-01-30T05:28:10;3.60;99.90
31113;DHT22;17763;48.730;9.136;2024-01-30T05:30:36;3.60;99.90
31113;DHT22;17763;48.730;9.136;2024-01-30T05:33:04;3.60;99.90
31113;DHT22;17763;48.730;9.136;2024-01-30T05:35:30;3.60;99.90
31113;DHT22;17763;48.730;9.136;2024-01-30T05:37:55;3.60;99.90
31113;DHT22;17763;48.730;9.136;2024-01-30T05:40:21;3.60;99.90
31113;DHT22;17763;48.730;9.136;2024-01-30T05:42:47;3.70;99.90
31113;DHT22;17763;48.730;9.136;2024-01-30T05:45:13;3.60;99.90
31113;DHT22;17763;48.730;9.136;2024-01-30T05:47:39;3.60;99.90
31113;DHT22;17763;48.730;9.136;2024-01-30T05:50:05;3.60;99.90
31113;DHT22;17763;48.730;9.136;2024-01-30T05:52:31;3.60;99.90
31113;DHT22;17763;48.730;9.136;2024-01-30T05:54:57;3.50;99.90
31113;DHT22;17763;48.730;9.136;2024-01-30T05:57:23;3.70;99.90
31113;DHT22;17763;48.730;9.136;2024-01-30T05:59:48;3.50;99.90
31113;DHT22;17763;48.730;9.136;2024-01-30T06:02:14;3.50;99.90
31113;DHT22;17763;48.730;9.136;2024-01-30T06:04:40;3.50;99.90
31113;DHT22;17763;48.730;9.136;2024-01-30T06:07:05;3.50;99.90
31113;DHT22;17763;48.730;9.136;2024-01-30T06:09:32;3.50;99.90
31113;DHT22;17763;48.730;9.136;2024-01-30T06:11:59;3.50;99.90
31113;DHT22;17763;48.730;9.136;2024-01-30T06:14:28;3.50;99.90
31113;DHT22;17763;48.730;9.136;2024-01-30T06:16:56;3.50;99.90
31113;DHT22;17763;48.730;9.136;2024-01-30T06:19:22;3.50;99.90
31113;DHT22;17763;48.730;9.136;2024-01-30T06:21:50;3.50;99.90
31113;DHT22;17763;48.730;9.136;2024-01-30T06:24:16;3.40;99.90
31113;DHT22;17763;48.730;9.136;2024-01-30T06:26:42;3.50;99.90
31113;DHT22;17763;48.730;9.136;2024-01-30T06:29:08;3.50;99.90
31113;DHT22;17763;48.730;9.136;2024-01-30T06:31:42;3.50;99.90
31113;DHT22;17763;48.730;9.136;2024-01-30T06:34:11;3.50;99.90
31113;DHT22;17763;48.730;9.136;2024-01-30T06:36:37;3.50;99.90
31113;DHT22;17763;48.730;9.136;2024-01-30T06:39:05;3.50;99.90
31113;DHT22;17763;48.730;9.136;2024-01-30T06:41:31;3.50;99.90
31113;DHT22;17763;48.730;9.136;2024-01-30T06:43:57;3.60;99.90
31113;DHT22;17763;48.730;9.136;2024-01-30T06:46:22;3.60;99.90
31113;DHT22;17763;48.730;9.136;2024-01-30T06:48:48;3.60;99.90
31113;DHT22;17763;48.730;9.136;2024-01-30T06:51:14;3.60;99.90
31113;DHT22;17763;48.730;9.136;2024-01-30T06:53:39;3.70;99.90
31113;DHT22;17763;48.730;9.136;2024-01-30T06:56:06;3.70;99.90
31113;DHT22;17763;48.730;9.136;2024-01-30T06:58:31;3.70;99.90
31113;DHT22;17763;48.730;9.136;2024-01-30T07:00:58;3.70;99.90
31113;DHT22;17763;48.730;9.136;2024-01-30T07:03:24;3.70;99.90
31113;DHT22;17763;48.730;9.136;2024-01-30T07:05:50;3.80;99.90
31113;DHT22;17763;48.730;9.136;2024-01-30T07:08:16;3.80;99.90
31113;DHT22;17763;48.730;9.136;2024-01-30T07:10:44;3.80;99.90
31113;DHT22;17763;48.730;9.136;2024-01-30T07:13:13;3.80;99.90
31113;DHT22;17763;48.730;9.136;2024-01-30T07:15:41;3.90;99.90
31113;DHT22;17763;48.730;9.136;2024-01-30T07:18:07;3.90;99.90
31113;DHT22;17763;48.730;9.136;2024-01-30T07:20:33;3.90;99.90
31113;DHT22;17763;48.730;9.136;2024-01-30T07:22:59;4.00;99.90
31113;DHT22;17763;48.730;9.136;2024-01-30T07:25:25;4.00;99.90
31113;DHT22;17763;48.730;9.136;2024-01-30T07:27:55;4.10;99.90
31113;DHT22;17763;48.730;9.136;2024-01-30T07:30:21;4.20;99.90
31113;DHT22;17763;48.730;9.136;2024-01-30T07:32:48;4.10;99.90
31113;DHT22;17763;48.730;9.136;2024-01-30T07:35:14;4.10;99.90
31113;DHT22;17763;48.730;9.136;2024-01-30T07:37:40;4.20;99.90
31113;DHT22;17763;48.730;9.136;2024-01-30T07:40:08;4.30;99.90
31113;DHT22;17763;48.730;9.136;2024-01-30T07:42:36;4.30;99.90
31113;DHT22;17763;48.730;9.136;2024-01-30T07:45:02;4.40;99.90
31113;DHT22;17763;48.730;9.136;2024-01-30T07:47:30;4.40;99.90
31113;DHT22;17763;48.730;9.136;2024-01-30T07:49:55;4.40;99.90
31113;DHT22;17763;48.730;9.136;2024-01-30T07:52:21;4.40;99.90
31113;DHT22;17763;48.730;9.136;2024-01-30T07:54:47;4.40;99.90
31113;DHT22;17763;48.730;9.136;2024-01-30T07:57:12;4.50;99.90
31113;DHT22;17763;48.730;9.136;2024-01-30T07:59:44;4.50;99.90
31113;DHT22;17763;48.730;9.136;2024-01-30T08:02:13;4.50;99.90
31113;DHT22;17763;48.730;9.136;2024-01-30T08:04:39;4.50;99.90
31113;DHT22;17763;48.730;9.136;2024-01-30T08:07:04;4.60;99.90
31113;DHT22;17763;48.730;9.136;2024-01-30T08:09:30;4.60;99.90
31113;DHT22;17763;48.730;9.136;2024-01-30T08:11:56;4.60;99.90
31113;DHT22;17763;48.730;9.136;2024-01-30T08:14:22;4.60;99.90
31113;DHT22;17763;48.730;9.136;2024-01-30T08:16:48;4.70;99.90
31113;DHT22;17763;48.730;9.136;2024-01-30T08:19:14;4.70;99.90
31113;DHT22;17763;48.730;9.136;2024-01-30T08:21:40;4.80;99.90
31113;DHT22;17763;48.730;9.136;2024-01-30T08:24:06;5.00;99.90
31113;DHT22;17763;48.730;9.136;2024-01-30T08:26:35;5.10;99.90
31113;DHT22;17763;48.730;9.136;2024-01-30T08:29:03;5.30;99.90
31113;DHT22;17763;48.730;9.136;2024-01-30T08:31:29;5.40;99.90
31113;DHT22;17763;48.730;9.136;2024-01-30T08:33:55;5.60;99.90
31113;DHT22;17763;48.730;9.136;2024-01-30T08:36:20;5.70;99.90
31113;DHT22;17763;48.730;9.136;2024-01-30T08:38:46;5.90;99.90
31113;DHT22;17763;48.730;9.136;2024-01-30T08:41:12;6.20;99.90
31113;DHT22;17763;48.730;9.136;2024-01-30T08:43:38;6.30;99.90
31113;DHT22;17763;48.730;9.136;2024-01-30T08:46:04;6.40;99.90
31113;DHT22;17763;48.730;9.136;2024-01-30T08:48:29;6.50;99.90
31113;DHT22;17763;48.730;9.136;2024-01-30T08:50:55;6.70;99.90
31113;DHT22;17763;48.730;9.136;2024-01-30T08:53:21;6.70;99.90
31113;DHT22;17763;48.730;9.136;2024-01-30T08:55:47;6.80;99.90
31113;DHT22;17763;48.730;9.136;2024-01-30T08:58:12;6.90;99.90
31113;DHT22;17763;48.730;9.136;2024-01-30T09:00:38;7.00;99.90
31113;DHT22;17763;48.730;9.136;2024-01-30T09:03:06;7.10;99.90
31113;DHT22;17763;48.730;9.136;2024-01-30T09:05:32;7.20;99.90
31113;DHT22;17763;48.730;9.136;2024-01-30T09:07:58;7.20;99.90
31113;DHT22;17763;48.730;9.136;2024-01-30T09:10:26;7.30;99.90
31113;DHT22;17763;48.730;9.136;2024-01-30T09:12:52;7.40;99.90
31113;DHT22;17763;48.730;9.136;2024-01-30T09:15:18;7.60;99.90
31113;DHT22;17763;48.730;9.136;2024-01-30T09:17:44;7.70;99.90
31113;DHT22;17763;48.730;9.136;2024-01-30T09:20:10;7.80;99.90
31113;DHT22;17763;48.730;9.136;2024-01-30T09:22:38;7.90;99.90
31113;DHT22;17763;48.730;9.136;2024-01-30T09:25:09;8.00;99.90
31113;DHT22;17763;48.730;9.136;2024-01-30T09:27:35;8.00;99.90
31113;DHT22;17763;48.730;9.136;2024-01-30T09:30:00;8.10;99.90
31113;DHT22;17763;48.730;9.136;2024-01-30T09:32:26;8.20;99.90
31113;DHT22;17763;48.730;9.136;2024-01-30T09:34:52;8.40;99.90
31113;DHT22;17763;48.730;9.136;2024-01-30T09:37:17;8.50;99.70
31113;DHT22;17763;48.730;9.136;2024-01-30T09:39:46;8.60;99.40
31113;DHT22;17763;48.730;9.136;2024-01-30T09:42:43;8.70;99.10
31113;DHT22;17763;48.730;9.136;2024-01-30T09:45:13;8.80;98.70
31113;DHT22;17763;48.730;9.136;2024-01-30T09:47:43;8.90;98.60
31113;DHT22;17763;48.730;9.136;2024-01-30T09:50:10;9.00;98.40
31113;DHT22;17763;48.730;9.136;2024-01-30T09:52:38;9.10;98.10
31113;DHT22;17763;48.730;9.136;2024-01-30T09:55:05;9.10;97.80
31113;DHT22;17763;48.730;9.136;2024-01-30T09:57:31;9.30;97.50
31113;DHT22;17763;48.730;9.136;2024-01-30T09:59:57;9.40;97.20
31113;DHT22;17763;48.730;9.136;2024-01-30T10:02:23;9.50;96.90
31113;DHT22;17763;48.730;9.136;2024-01-30T10:04:49;9.60;96.60
31113;DHT22;17763;48.730;9.136;2024-01-30T10:07:16;9.70;96.30
31113;DHT22;17763;48.730;9.136;2024-01-30T10:09:42;9.80;95.70
31113;DHT22;17763;48.730;9.136;2024-01-30T10:12:09;9.90;94.30
31113;DHT22;17763;48.730;9.136;2024-01-30T10:14:41;10.00;93.00
31113;DHT22;17763;48.730;9.136;2024-01-30T10:17:11;10.10;92.50
31113;DHT22;17763;48.730;9.136;2024-01-30T10:19:38;10.20;92.20
31113;DHT22;17763;48.730;9.136;2024-01-30T10:22:04;10.30;91.90
31113;DHT22;17763;48.730;9.136;2024-01-30T10:24:33;10.40;91.60
31113;DHT22;17763;48.730;9.136;2024-01-30T10:26:58;10.50;91.80
31113;DHT22;17763;48.730;9.136;2024-01-30T10:29:24;10.60;91.70
31113;DHT22;17763;48.730;9.136;2024-01-30T10:34:25;10.80;89.00
31113;DHT22;17763;48.730;9.136;2024-01-30T10:37:10;10.90;88.10
31113;DHT22;17763;48.730;9.136;2024-01-30T10:39:39;11.00;87.30
31113;DHT22;17763;48.730;9.136;2024-01-30T10:42:06;11.10;86.40
31113;DHT22;17763;48.730;9.136;2024-01-30T10:47:13;11.40;84.90
31113;DHT22;17763;48.730;9.136;2024-01-30T10:49:44;11.40;84.00
31113;DHT22;17763;48.730;9.136;2024-01-30T10:52:13;11.50;82.60
31113;DHT22;17763;48.730;9.136;2024-01-30T10:54:44;11.50;81.10
31113;DHT22;17763;48.730;9.136;2024-01-30T10:57:14;11.60;81.00
31113;DHT22;17763;48.730;9.136;2024-01-30T10:59:41;11.60;80.60
31113;DHT22;17763;48.730;9.136;2024-01-30T11:02:08;11.70;80.90
31113;DHT22;17763;48.730;9.136;2024-01-30T11:04:40;11.70;79.20
31113;DHT22;17763;48.730;9.136;2024-01-30T11:07:23;11.70;79.10
31113;DHT22;17763;48.730;9.136;2024-01-30T11:09:59;11.70;78.60
31113;DHT22;17763;48.730;9.136;2024-01-30T11:12:29;11.80;78.50
31113;DHT22;17763;48.730;9.136;2024-01-30T11:15:18;11.90;78.60
31113;DHT22;17763;48.730;9.136;2024-01-30T11:20:14;11.90;77.40
31113;DHT22;17763;48.730;9.136;2024-01-30T11:23:02;12.00;77.00
31113;DHT22;17763;48.730;9.136;2024-01-30T11:25:32;11.90;76.90
31113;DHT22;17763;48.730;9.136;2024-01-30T11:27:58;12.00;76.70
31113;DHT22;17763;48.730;9.136;2024-01-30T11:30:29;12.10;76.20
31113;DHT22;17763;48.730;9.136;2024-01-30T11:33:14;12.10;76.20
31113;DHT22;17763;48.730;9.136;2024-01-30T11:35:44;12.10;75.80
31113;DHT22;17763;48.730;9.136;2024-01-30T11:38:14;12.20;75.90
31113;DHT22;17763;48.730;9.136;2024-01-30T11:40:40;12.20;75.40
31113;DHT22;17763;48.730;9.136;2024-01-30T11:43:07;12.30;75.50
31113;DHT22;17763;48.730;9.136;2024-01-30T11:45:36;12.30;75.00
31113;DHT22;17763;48.730;9.136;2024-01-30T11:48:02;12.40;75.10
31113;DHT22;17763;48.730;9.136;2024-01-30T11:50:33;12.40;75.00
31113;DHT22;17763;48.730;9.136;2024-01-30T11:53:00;12.50;74.70
31113;DHT22;17763;48.730;9.136;2024-01-30T11:55:26;12.60;74.70
31113;DHT22;17763;48.730;9.136;2024-01-30T11:57:55;12.60;74.70
31113;DHT22;17763;48.730;9.136;2024-01-30T12:00:26;12.70;74.30
31113;DHT22;17763;48.730;9.136;2024-01-30T12:02:55;12.70;73.40
31113;DHT22;17763;48.730;9.136;2024-01-30T12:05:26;12.70;73.20
31113;DHT22;17763;48.730;9.136;2024-01-30T12:07:54;12.70;73.50
31113;DHT22;17763;48.730;9.136;2024-01-30T12:10:21;12.80;73.50
31113;DHT22;17763;48.730;9.136;2024-01-30T12:12:51;12.80;73.00
31113;DHT22;17763;48.730;9.136;2024-01-30T12:15:21;12.80;73.30
31113;DHT22;17763;48.730;9.136;2024-01-30T12:17:47;12.80;72.80
31113;DHT22;17763;48.730;9.136;2024-01-30T12:20:14;12.90;72.60
31113;DHT22;17763;48.730;9.136;2024-01-30T12:22:47;12.80;72.40
31113;DHT22;17763;48.730;9.136;2024-01-30T12:25:14;12.90;72.40
31113;DHT22;17763;48.730;9.136;2024-01-30T12:27:42;13.00;72.20
31113;DHT22;17763;48.730;9.136;2024-01-30T12:30:09;12.90;71.80
31113;DHT22;17763;48.730;9.136;2024-01-30T12:32:40;12.90;71.80
31113;DHT22;17763;48.730;9.136;2024-01-30T12:35:15;12.90;71.80
31113;DHT22;17763;48.730;9.136;2024-01-30T12:37:44;12.80;71.90
31113;DHT22;17763;48.730;9.136;2024-01-30T12:40:13;12.90;72.10
31113;DHT22;17763;48.730;9.136;2024-01-30T12:42:43;12.90;71.80
31113;DHT22;17763;48.730;9.136;2024-01-30T12:45:11;12.90;71.70
31113;DHT22;17763;48.730;9.136;2024-01-30T12:47:37;13.00;71.60
31113;DHT22;17763;48.730;9.136;2024-01-30T12:50:03;13.10;71.50
31113;DHT22;17763;48.730;9.136;2024-01-30T12:52:29;13.10;71.10
31113;DHT22;17763;48.730;9.136;2024-01-30T12:54:55;13.10;71.20
31113;DHT22;17763;48.730;9.136;2024-01-30T12:57:20;13.20;70.70
31113;DHT22;17763;48.730;9.136;2024-01-30T12:59:47;13.20;70.70
31113;DHT22;17763;48.730;9.136;2024-01-30T13:02:15;13.20;70.40
31113;DHT22;17763;48.730;9.136;2024-01-30T13:04:46;13.20;70.40
31113;DHT22;17763;48.730;9.136;2024-01-30T13:07:12;13.20;70.70
31113;DHT22;17763;48.730;9.136;2024-01-30T13:09:38;13.30;70.60
31113;DHT22;17763;48.730;9.136;2024-01-30T13:12:04;13.40;70.00
31113;DHT22;17763;48.730;9.136;2024-01-30T13:14:32;13.50;70.20
31113;DHT22;17763;48.730;9.136;2024-01-30T13:16:58;13.60;70.30
31113;DHT22;17763;48.730;9.136;2024-01-30T13:19:26;13.70;69.50
31113;DHT22;17763;48.730;9.136;2024-01-30T13:21:52;13.80;68.90
31113;DHT22;17763;48.730;9.136;2024-01-30T13:24:18;13.80;68.80
31113;DHT22;17763;48.730;9.136;2024-01-30T13:26:46;13.80;68.80
31113;DHT22;17763;48.730;9.136;2024-01-30T13:29:12;13.80;68.60
31113;DHT22;17763;48.730;9.136;2024-01-30T13:31:38;13.90;68.40
31113;DHT22;17763;48.730;9.136;2024-01-30T13:34:05;13.90;68.40
31113;DHT22;17763;48.730;9.136;2024-01-30T13:36:32;14.00;68.60
31113;DHT22;17763;48.730;9.136;2024-01-30T13:38:57;14.00;67.60
31113;DHT22;17763;48.730;9.136;2024-01-30T13:41:23;13.90;67.60
31113;DHT22;17763;48.730;9.136;2024-01-30T13:43:51;13.90;68.00
31113;DHT22;17763;48.730;9.136;2024-01-30T13:46:19;14.00;67.80
31113;DHT22;17763;48.730;9.136;2024-01-30T13:48:45;13.90;67.90
31113;DHT22;17763;48.730;9.136;2024-01-30T13:51:11;13.90;67.70
31113;DHT22;17763;48.730;9.136;2024-01-30T13:53:39;13.90;67.30
31113;DHT22;17763;48.730;9.136;2024-01-30T13:56:04;13.90;67.60
31113;DHT22;17763;48.730;9.136;2024-01-30T13:58:31;13.90;67.60
31113;DHT22;17763;48.730;9.136;2024-01-30T14:00:59;13.90;67.80
31113;DHT22;17763;48.730;9.136;2024-01-30T14:03:26;13.80;67.60
31113;DHT22;17763;48.730;9.136;2024-01-30T14:05:52;13.80;67.80
31113;DHT22;17763;48.730;9.136;2024-01-30T14:08:18;13.80;67.90
31113;DHT22;17763;48.730;9.136;2024-01-30T14:10:45;13.80;68.00
31113;DHT22;17763;48.730;9.136;2024-01-30T14:13:11;13.80;67.70
31113;DHT22;17763;48.730;9.136;2024-01-30T14:15:39;13.70;67.70
31113;DHT22;17763;48.730;9.136;2024-01-30T14:18:07;13.80;67.80
31113;DHT22;17763;48.730;9.136;2024-01-30T14:20:36;13.80;67.80
31113;DHT22;17763;48.730;9.136;2024-01-30T14:23:02;13.80;68.10
31113;DHT22;17763;48.730;9.136;2024-01-30T14:25:28;13.80;68.20
31113;DHT22;17763;48.730;9.136;2024-01-30T14:27:56;13.90;68.60
31113;DHT22;17763;48.730;9.136;2024-01-30T14:30:21;13.90;69.00
31113;DHT22;17763;48.730;9.136;2024-01-30T14:32:47;13.90;69.00
31113;DHT22;17763;48.730;9.136;2024-01-30T14:35:14;13.80;69.50
31113;DHT22;17763;48.730;9.136;2024-01-30T14:37:39;13.90;69.50
31113;DHT22;17763;48.730;9.136;2024-01-30T14:40:06;13.90;69.20
31113;DHT22;17763;48.730;9.136;2024-01-30T14:42:35;13.90;68.60
31113;DHT22;17763;48.730;9.136;2024-01-30T14:45:02;13.80;68.30
31113;DHT22;17763;48.730;9.136;2024-01-30T14:47:28;13.70;68.20
31113;DHT22;17763;48.730;9.136;2024-01-30T14:49:53;13.70;68.20
31113;DHT22;17763;48.730;9.136;2024-01-30T14:52:19;13.60;68.50
31113;DHT22;17763;48.730;9.136;2024-01-30T14:54:44;13.60;68.60
31113;DHT22;17763;48.730;9.136;2024-01-30T14:57:10;13.50;68.60
31113;DHT22;17763;48.730;9.136;2024-01-30T14:59:36;13.50;68.70
31113;DHT22;17763;48.730;9.136;2024-01-30T15:02:04;13.40;68.80
31113;DHT22;17763;48.730;9.136;2024-01-30T15:04:30;13.30;69.00
31113;DHT22;17763;48.730;9.136;2024-01-30T15:06:55;13.30;69.20
31113;DHT22;17763;48.730;9.136;2024-01-30T15:09:23;13.20;69.50
31113;DHT22;17763;48.730;9.136;2024-01-30T15:11:51;13.10;69.80
31113;DHT22;17763;48.730;9.136;2024-01-30T15:14:17;13.10;70.10
31113;DHT22;17763;48.730;9.136;2024-01-30T15:16:43;13.10;70.30
31113;DHT22;17763;48.730;9.136;2024-01-30T15:19:08;13.00;70.50
31113;DHT22;17763;48.730;9.136;2024-01-30T15:21:34;12.90;71.70
31113;DHT22;17763;48.730;9.136;2024-01-30T15:24:00;12.70;73.10
31113;DHT22;17763;48.730;9.136;2024-01-30T15:26:26;12.50;73.50
31113;DHT22;17763;48.730;9.136;2024-01-30T15:28:51;12.50;74.10
31113;DHT22;17763;48.730;9.136;2024-01-30T15:31:19;12.30;74.80
31113;DHT22;17763;48.730;9.136;2024-01-30T15:33:48;12.20;75.50
31113;DHT22;17763;48.730;9.136;2024-01-30T15:36:16;12.10;76.10
31113;DHT22;17763;48.730;9.136;2024-01-30T15:38:42;11.90;76.80
31113;DHT22;17763;48.730;9.136;2024-01-30T15:41:10;11.70;77.60
31113;DHT22;17763;48.730;9.136;2024-01-30T15:43:36;11.60;78.40
31113;DHT22;17763;48.730;9.136;2024-01-30T15:46:04;11.50;78.70
31113;DHT22;17763;48.730;9.136;2024-01-30T15:48:34;11.30;79.30